sensor_id;sensor_type;location;lat;lon;timestamp;pressure;altitude;pressure_sealevel;temperature;humidity
9460;BME280;4768;42.664;23.240;2022-07-11T00:00:56;171152.84;;;15.80;nan
9460;BME280;4768;42.664;23.240;2022-07-11T00:03:25;171124.75;;;15.69;nan
9460;BME280;4768;42.664;23.240;2022-07-11T00:05:51;171116.72;;;15.66;nan
9460;BME280;4768;42.664;23.240;2022-07-11T00:08:18;171096.69;;;15.59;nan
9460;BME280;4768;42.664;23.240;2022-07-11T00:10:45;171076.63;;;15.51;nan
9460;BME280;4768;42.664;23.240;2022-07-11T00:13:12;171065.91;;;15.48;nan
9460;BME280;4768;42.664;23.240;2022-07-11T00:15:38;171059.22;;;15.45;nan
9460;BME280;4768;42.664;23.240;2022-07-11T00:18:05;171048.56;;;15.41;nan
9460;BME280;4768;42.664;23.240;2022-07-11T00:20:33;171044.56;;;15.40;nan
9460;BME280;4768;42.664;23.240;2022-07-11T00:23:00;171032.53;;;15.35;nan
9460;BME280;4768;42.664;23.240;2022-07-11T00:25:27;171035.16;;;15.36;nan
9460;BME280;4768;42.664;23.240;2022-07-11T00:27:53;171032.53;;;15.35;nan
9460;BME280;4768;42.664;23.240;2022-07-11T00:30:20;171044.56;;;15.40;nan
9460;BME280;4768;42.664;23.240;2022-07-11T00:32:47;171061.91;;;15.46;nan
9460;BME280;4768;42.664;23.240;2022-07-11T00:35:14;171064.59;;;15.47;nan
9460;BME280;4768;42.664;23.240;2022-07-11T00:37:42;171067.25;;;15.48;nan
9460;BME280;4768;42.664;23.240;2022-07-11T00:40:09;171052.56;;;15.43;nan
9460;BME280;4768;42.664;23.240;2022-07-11T00:42:36;171072.63;;;15.50;nan
9460;BME280;4768;42.664;23.240;2022-07-11T00:45:03;171075.25;;;15.51;nan
9460;BME280;4768;42.664;23.240;2022-07-11T00:47:30;171060.59;;;15.46;nan
9460;BME280;4768;42.664;23.240;2022-07-11T00:49:57;171031.16;;;15.35;nan
9460;BME280;4768;42.664;23.240;2022-07-11T00:52:25;171005.78;;;15.25;nan
9460;BME280;4768;42.664;23.240;2022-07-11T00:54:53;171015.13;;;15.29;nan
9460;BME280;4768;42.664;23.240;2022-07-11T00:57:21;171013.78;;;15.28;nan
9460;BME280;4768;42.664;23.240;2022-07-11T00:59:48;171033.84;;;15.36;nan
9460;BME280;4768;42.664;23.240;2022-07-11T01:02:15;171032.53;;;15.35;nan
9460;BME280;4768;42.664;23.240;2022-07-11T01:04:41;171036.53;;;15.37;nan
9460;BME280;4768;42.664;23.240;2022-07-11T01:07:08;171032.53;;;15.35;nan
9460;BME280;4768;42.664;23.240;2022-07-11T01:09:35;171027.13;;;15.33;nan
9460;BME280;4768;42.664;23.240;2022-07-11T01:12:05;171016.47;;;15.29;nan
9460;BME280;4768;42.664;23.240;2022-07-11T01:14:32;171016.47;;;15.29;nan
9460;BME280;4768;42.664;23.240;2022-07-11T01:16:58;170995.06;;;15.21;nan
9460;BME280;4768;42.664;23.240;2022-07-11T01:19:25;170984.34;;;15.17;nan
9460;BME280;4768;42.664;23.240;2022-07-11T01:21:56;170966.94;;;15.11;nan
9460;BME280;4768;42.664;23.240;2022-07-11T01:24:24;170960.25;;;15.08;nan
9460;BME280;4768;42.664;23.240;2022-07-11T01:26:51;170944.22;;;15.02;nan
9460;BME280;4768;42.664;23.240;2022-07-11T01:29:18;170934.88;;;14.99;nan
9460;BME280;4768;42.664;23.240;2022-07-11T01:31:45;170926.84;;;14.96;nan
9460;BME280;4768;42.664;23.240;2022-07-11T01:34:12;170921.53;;;14.94;nan
9460;BME280;4768;42.664;23.240;2022-07-11T01:36:38;170914.81;;;14.92;nan
9460;BME280;4768;42.664;23.240;2022-07-11T01:39:05;170918.84;;;14.93;nan
9460;BME280;4768;42.664;23.240;2022-07-11T01:41:33;170912.13;;;14.91;nan
9460;BME280;4768;42.664;23.240;2022-07-11T01:44:00;170882.75;;;14.80;nan
9460;BME280;4768;42.664;23.240;2022-07-11T01:46:27;170876.06;;;14.77;nan
9460;BME280;4768;42.664;23.240;2022-07-11T01:48:53;170852.00;;;14.68;nan
9460;BME280;4768;42.664;23.240;2022-07-11T01:51:22;170831.97;;;14.61;nan
9460;BME280;4768;42.664;23.240;2022-07-11T01:53:49;170806.59;;;14.51;nan
9460;BME280;4768;42.664;23.240;2022-07-11T01:56:16;170777.19;;;14.41;nan
9460;BME280;4768;42.664;23.240;2022-07-11T01:58:44;170758.50;;;14.34;nan
9460;BME280;4768;42.664;23.240;2022-07-11T02:01:11;170746.50;;;14.29;nan
9460;BME280;4768;42.664;23.240;2022-07-11T02:03:38;170725.09;;;14.21;nan
9460;BME280;4768;42.664;23.240;2022-07-11T02:06:05;170722.44;;;14.20;nan
9460;BME280;4768;42.664;23.240;2022-07-11T02:08:32;170723.75;;;14.21;nan
9460;BME280;4768;42.664;23.240;2022-07-11T02:10:58;170713.06;;;14.17;nan
9460;BME280;4768;42.664;23.240;2022-07-11T02:13:25;170727.78;;;14.22;nan
9460;BME280;4768;42.664;23.240;2022-07-11T02:15:53;170721.06;;;14.20;nan
9460;BME280;4768;42.664;23.240;2022-07-11T02:18:20;170729.09;;;14.23;nan
9460;BME280;4768;42.664;23.240;2022-07-11T02:20:47;170719.75;;;14.19;nan
9460;BME280;4768;42.664;23.240;2022-07-11T02:23:15;170706.41;;;14.14;nan
9460;BME280;4768;42.664;23.240;2022-07-11T02:25:42;170694.41;;;14.10;nan
9460;BME280;4768;42.664;23.240;2022-07-11T02:28:10;170681.00;;;14.05;nan
9460;BME280;4768;42.664;23.240;2022-07-11T02:30:38;170670.31;;;14.01;nan
9460;BME280;4768;42.664;23.240;2022-07-11T02:33:06;170679.63;;;14.04;nan
9460;BME280;4768;42.664;23.240;2022-07-11T02:35:34;170666.31;;;14.00;nan
9460;BME280;4768;42.664;23.240;2022-07-11T02:38:02;170678.31;;;14.04;nan
9460;BME280;4768;42.664;23.240;2022-07-11T02:40:29;170693.03;;;14.09;nan
9460;BME280;4768;42.664;23.240;2022-07-11T02:42:56;170706.41;;;14.14;nan
9460;BME280;4768;42.664;23.240;2022-07-11T02:45:23;170715.75;;;14.18;nan
9460;BME280;4768;42.664;23.240;2022-07-11T02:47:49;170722.44;;;14.20;nan
9460;BME280;4768;42.664;23.240;2022-07-11T02:50:18;170701.03;;;14.12;nan
9460;BME280;4768;42.664;23.240;2022-07-11T02:52:45;170733.09;;;14.24;nan
9460;BME280;4768;42.664;23.240;2022-07-11T02:55:12;170738.47;;;14.26;nan
9460;BME280;4768;42.664;23.240;2022-07-11T02:57:41;170726.44;;;14.22;nan
9460;BME280;4768;42.664;23.240;2022-07-11T03:00:09;170722.44;;;14.20;nan
9460;BME280;4768;42.664;23.240;2022-07-11T03:02:37;170726.44;;;14.22;nan
9460;BME280;4768;42.664;23.240;2022-07-11T03:05:04;170722.44;;;14.20;nan
9460;BME280;4768;42.664;23.240;2022-07-11T03:07:32;170747.81;;;14.30;nan
9460;BME280;4768;42.664;23.240;2022-07-11T03:09:59;170757.13;;;14.33;nan
9460;BME280;4768;42.664;23.240;2022-07-11T03:12:26;170754.50;;;14.32;nan
9460;BME280;4768;42.664;23.240;2022-07-11T03:14:53;170763.84;;;14.36;nan
9460;BME280;4768;42.664;23.240;2022-07-11T03:17:19;170789.19;;;14.45;nan
9460;BME280;4768;42.664;23.240;2022-07-11T03:19:46;170811.94;;;14.53;nan
9460;BME280;4768;42.664;23.240;2022-07-11T03:22:13;170817.25;;;14.55;nan
9460;BME280;4768;42.664;23.240;2022-07-11T03:24:41;170830.66;;;14.60;nan
9460;BME280;4768;42.664;23.240;2022-07-11T03:27:08;170848.00;;;14.67;nan
9460;BME280;4768;42.664;23.240;2022-07-11T03:29:35;170838.66;;;14.63;nan
9460;BME280;4768;42.664;23.240;2022-07-11T03:32:02;170882.75;;;14.80;nan
9460;BME280;4768;42.664;23.240;2022-07-11T03:34:29;170866.72;;;14.74;nan
9460;BME280;4768;42.664;23.240;2022-07-11T03:36:56;170862.72;;;14.72;nan
9460;BME280;4768;42.664;23.240;2022-07-11T03:39:23;170839.97;;;14.64;nan
9460;BME280;4768;42.664;23.240;2022-07-11T03:41:51;170846.69;;;14.66;nan
9460;BME280;4768;42.664;23.240;2022-07-11T03:44:18;170878.75;;;14.78;nan
9460;BME280;4768;42.664;23.240;2022-07-11T03:46:45;170888.09;;;14.82;nan
9460;BME280;4768;42.664;23.240;2022-07-11T03:49:12;170900.09;;;14.86;nan
9460;BME280;4768;42.664;23.240;2022-07-11T03:51:38;170918.84;;;14.93;nan
9460;BME280;4768;42.664;23.240;2022-07-11T03:54:05;170961.63;;;15.09;nan
9460;BME280;4768;42.664;23.240;2022-07-11T03:56:32;170995.06;;;15.21;nan
9460;BME280;4768;42.664;23.240;2022-07-11T03:59:00;171045.88;;;15.40;nan
9460;BME280;4768;42.664;23.240;2022-07-11T04:01:27;171075.25;;;15.51;nan
9460;BME280;4768;42.664;23.240;2022-07-11T04:03:54;171095.31;;;15.58;nan
9460;BME280;4768;42.664;23.240;2022-07-11T04:06:21;171156.84;;;15.81;nan
9460;BME280;4768;42.664;23.240;2022-07-11T04:08:47;171179.59;;;15.90;nan
9460;BME280;4768;42.664;23.240;2022-07-11T04:11:14;171192.94;;;15.95;nan
9460;BME280;4768;42.664;23.240;2022-07-11T04:13:41;171235.75;;;16.10;nan
9460;BME280;4768;42.664;23.240;2022-07-11T04:16:09;171207.66;;;16.00;nan
9460;BME280;4768;42.664;23.240;2022-07-11T04:18:35;171199.66;;;15.97;nan
9460;BME280;4768;42.664;23.240;2022-07-11T04:21:03;171162.19;;;15.83;nan
9460;BME280;4768;42.664;23.240;2022-07-11T04:23:29;171162.19;;;15.83;nan
9460;BME280;4768;42.664;23.240;2022-07-11T04:25:56;171167.56;;;15.85;nan
9460;BME280;4768;42.664;23.240;2022-07-11T04:28:23;171182.22;;;15.91;nan
9460;BME280;4768;42.664;23.240;2022-07-11T04:30:49;171171.56;;;15.87;nan
9460;BME280;4768;42.664;23.240;2022-07-11T04:33:17;171158.16;;;15.82;nan
9460;BME280;4768;42.664;23.240;2022-07-11T04:35:44;171156.84;;;15.81;nan
9460;BME280;4768;42.664;23.240;2022-07-11T04:38:11;171135.41;;;15.73;nan
9460;BME280;4768;42.664;23.240;2022-07-11T04:40:37;171198.28;;;15.96;nan
9460;BME280;4768;42.664;23.240;2022-07-11T04:43:04;171223.72;;;16.06;nan
9460;BME280;4768;42.664;23.240;2022-07-11T04:45:31;171178.22;;;15.89;nan
9460;BME280;4768;42.664;23.240;2022-07-11T04:47:58;171168.88;;;15.86;nan
9460;BME280;4768;42.664;23.240;2022-07-11T04:50:28;171171.56;;;15.87;nan
9460;BME280;4768;42.664;23.240;2022-07-11T04:52:55;171253.13;;;16.17;nan
9460;BME280;4768;42.664;23.240;2022-07-11T04:55:22;171309.34;;;16.38;nan
9460;BME280;4768;42.664;23.240;2022-07-11T04:57:48;171396.31;;;16.70;nan
9460;BME280;4768;42.664;23.240;2022-07-11T05:00:15;171425.72;;;16.81;nan
9460;BME280;4768;42.664;23.240;2022-07-11T05:02:42;171427.09;;;16.81;nan
9460;BME280;4768;42.664;23.240;2022-07-11T05:05:09;171511.38;;;17.12;nan
9460;BME280;4768;42.664;23.240;2022-07-11T05:07:37;171531.47;;;17.20;nan
9460;BME280;4768;42.664;23.240;2022-07-11T05:10:05;171523.44;;;17.17;nan
9460;BME280;4768;42.664;23.240;2022-07-11T05:12:32;171519.41;;;17.15;nan
9460;BME280;4768;42.664;23.240;2022-07-11T05:14:59;171496.66;;;17.07;nan
9460;BME280;4768;42.664;23.240;2022-07-11T05:17:25;171420.38;;;16.79;nan
9460;BME280;4768;42.664;23.240;2022-07-11T05:19:55;171433.75;;;16.84;nan
9460;BME280;4768;42.664;23.240;2022-07-11T05:22:22;171448.47;;;16.89;nan
9460;BME280;4768;42.664;23.240;2022-07-11T05:24:50;171452.50;;;16.91;nan
9460;BME280;4768;42.664;23.240;2022-07-11T05:27:16;171476.59;;;16.99;nan
9460;BME280;4768;42.664;23.240;2022-07-11T05:29:43;171528.75;;;17.19;nan
9460;BME280;4768;42.664;23.240;2022-07-11T05:32:10;171499.34;;;17.08;nan
9460;BME280;4768;42.664;23.240;2022-07-11T05:34:37;171539.53;;;17.23;nan
9460;BME280;4768;42.664;23.240;2022-07-11T05:37:05;171619.84;;;17.52;nan
9460;BME280;4768;42.664;23.240;2022-07-11T05:39:32;171522.09;;;17.16;nan
9460;BME280;4768;42.664;23.240;2022-07-11T05:42:00;171542.22;;;17.24;nan
9460;BME280;4768;42.664;23.240;2022-07-11T05:44:27;171516.72;;;17.14;nan
9460;BME280;4768;42.664;23.240;2022-07-11T05:46:58;171552.91;;;17.28;nan
9460;BME280;4768;42.664;23.240;2022-07-11T05:49:25;171520.75;;;17.16;nan
9460;BME280;4768;42.664;23.240;2022-07-11T05:51:52;171633.19;;;17.57;nan
9460;BME280;4768;42.664;23.240;2022-07-11T05:54:18;171685.47;;;17.77;nan
9460;BME280;4768;42.664;23.240;2022-07-11T05:56:45;171816.69;;;18.25;nan
9460;BME280;4768;42.664;23.240;2022-07-11T05:59:13;171784.53;;;18.13;nan
9460;BME280;4768;42.664;23.240;2022-07-11T06:01:40;171818.06;;;18.26;nan
9460;BME280;4768;42.664;23.240;2022-07-11T06:04:07;171803.31;;;18.20;nan
9460;BME280;4768;42.664;23.240;2022-07-11T06:06:34;171759.06;;;18.04;nan
9460;BME280;4768;42.664;23.240;2022-07-11T06:09:00;171789.94;;;18.15;nan
9460;BME280;4768;42.664;23.240;2022-07-11T06:11:27;171791.25;;;18.16;nan
9460;BME280;4768;42.664;23.240;2022-07-11T06:13:55;171705.53;;;17.84;nan
9460;BME280;4768;42.664;23.240;2022-07-11T06:16:23;171803.31;;;18.20;nan
9460;BME280;4768;42.664;23.240;2022-07-11T06:18:50;171773.81;;;18.09;nan
9460;BME280;4768;42.664;23.240;2022-07-11T06:21:17;171662.69;;;17.68;nan
9460;BME280;4768;42.664;23.240;2022-07-11T06:23:44;171653.28;;;17.65;nan
9460;BME280;4768;42.664;23.240;2022-07-11T06:26:11;171761.78;;;18.05;nan
9460;BME280;4768;42.664;23.240;2022-07-11T06:28:40;171743.00;;;17.98;nan
9460;BME280;4768;42.664;23.240;2022-07-11T06:31:06;171637.22;;;17.59;nan
9460;BME280;4768;42.664;23.240;2022-07-11T06:33:35;171694.81;;;17.80;nan
9460;BME280;4768;42.664;23.240;2022-07-11T06:36:03;171725.63;;;17.92;nan
9460;BME280;4768;42.664;23.240;2022-07-11T06:38:30;171651.97;;;17.64;nan
9460;BME280;4768;42.664;23.240;2022-07-11T06:40:56;171733.66;;;17.94;nan
9460;BME280;4768;42.664;23.240;2022-07-11T06:43:23;171739.00;;;17.96;nan
9460;BME280;4768;42.664;23.240;2022-07-11T06:45:50;171759.06;;;18.04;nan
9460;BME280;4768;42.664;23.240;2022-07-11T06:48:17;171796.59;;;18.18;nan
9460;BME280;4768;42.664;23.240;2022-07-11T06:50:47;171702.84;;;17.83;nan
9460;BME280;4768;42.664;23.240;2022-07-11T06:53:14;171722.94;;;17.91;nan
9460;BME280;4768;42.664;23.240;2022-07-11T06:55:41;171704.16;;;17.84;nan
9460;BME280;4768;42.664;23.240;2022-07-11T06:58:08;171726.94;;;17.92;nan
9460;BME280;4768;42.664;23.240;2022-07-11T07:00:35;171672.03;;;17.72;nan
9460;BME280;4768;42.664;23.240;2022-07-11T07:03:01;171716.22;;;17.88;nan
9460;BME280;4768;42.664;23.240;2022-07-11T07:05:28;171783.16;;;18.13;nan
9460;BME280;4768;42.664;23.240;2022-07-11T07:07:56;171835.44;;;18.32;nan
9460;BME280;4768;42.664;23.240;2022-07-11T07:10:23;171897.09;;;18.55;nan
9460;BME280;4768;42.664;23.240;2022-07-11T07:12:50;171945.28;;;18.73;nan
9460;BME280;4768;42.664;23.240;2022-07-11T07:15:17;172004.19;;;18.94;nan
9460;BME280;4768;42.664;23.240;2022-07-11T07:17:44;171911.78;;;18.60;nan
9460;BME280;4768;42.664;23.240;2022-07-11T07:20:11;171993.50;;;18.90;nan
9460;BME280;4768;42.664;23.240;2022-07-11T07:22:38;171854.22;;;18.39;nan
9460;BME280;4768;42.664;23.240;2022-07-11T07:25:08;171751.03;;;18.01;nan
9460;BME280;4768;42.664;23.240;2022-07-11T07:27:35;171812.66;;;18.24;nan
9460;BME280;4768;42.664;23.240;2022-07-11T07:30:03;171806.00;;;18.21;nan
9460;BME280;4768;42.664;23.240;2022-07-11T07:32:30;171819.38;;;18.26;nan
9460;BME280;4768;42.664;23.240;2022-07-11T07:34:57;171840.78;;;18.34;nan
9460;BME280;4768;42.664;23.240;2022-07-11T07:37:24;171973.44;;;18.83;nan
9460;BME280;4768;42.664;23.240;2022-07-11T07:39:51;171887.66;;;18.51;nan
9460;BME280;4768;42.664;23.240;2022-07-11T07:42:19;171984.09;;;18.87;nan
9460;BME280;4768;42.664;23.240;2022-07-11T07:44:45;172049.84;;;19.11;nan
9460;BME280;4768;42.664;23.240;2022-07-11T07:47:12;171889.03;;;18.52;nan
9460;BME280;4768;42.664;23.240;2022-07-11T07:49:39;171678.75;;;17.74;nan
9460;BME280;4768;42.664;23.240;2022-07-11T07:52:06;171822.06;;;18.27;nan
9460;BME280;4768;42.664;23.240;2022-07-11T07:54:32;171751.03;;;18.01;nan
9460;BME280;4768;42.664;23.240;2022-07-11T07:56:59;171784.53;;;18.13;nan
9460;BME280;4768;42.664;23.240;2022-07-11T07:59:27;171752.34;;;18.01;nan
9460;BME280;4768;42.664;23.240;2022-07-11T08:01:54;171843.47;;;18.35;nan
9460;BME280;4768;42.664;23.240;2022-07-11T08:04:20;171783.16;;;18.13;nan
9460;BME280;4768;42.664;23.240;2022-07-11T08:06:46;171749.72;;;18.00;nan
9460;BME280;4768;42.664;23.240;2022-07-11T08:09:13;171792.59;;;18.16;nan
9460;BME280;4768;42.664;23.240;2022-07-11T08:11:40;171860.91;;;18.42;nan
9460;BME280;4768;42.664;23.240;2022-07-11T08:14:07;171870.28;;;18.45;nan
9460;BME280;4768;42.664;23.240;2022-07-11T08:16:35;171874.28;;;18.46;nan
9460;BME280;4768;42.664;23.240;2022-07-11T08:19:04;171788.56;;;18.15;nan
9460;BME280;4768;42.664;23.240;2022-07-11T08:21:32;171717.59;;;17.89;nan
9460;BME280;4768;42.664;23.240;2022-07-11T08:23:59;171760.41;;;18.04;nan
9460;BME280;4768;42.664;23.240;2022-07-11T08:26:26;171714.88;;;17.88;nan
9460;BME280;4768;42.664;23.240;2022-07-11T08:28:53;171753.72;;;18.02;nan
9460;BME280;4768;42.664;23.240;2022-07-11T08:31:19;171784.53;;;18.13;nan
9460;BME280;4768;42.664;23.240;2022-07-11T08:33:47;171808.66;;;18.22;nan
9460;BME280;4768;42.664;23.240;2022-07-11T08:36:16;171923.81;;;18.65;nan
9460;BME280;4768;42.664;23.240;2022-07-11T08:38:42;171909.13;;;18.59;nan
9460;BME280;4768;42.664;23.240;2022-07-11T08:41:12;171910.44;;;18.60;nan
9460;BME280;4768;42.664;23.240;2022-07-11T08:43:40;171886.34;;;18.51;nan
9460;BME280;4768;42.664;23.240;2022-07-11T08:46:08;171886.34;;;18.51;nan
9460;BME280;4768;42.664;23.240;2022-07-11T08:48:38;171889.03;;;18.52;nan
9460;BME280;4768;42.664;23.240;2022-07-11T08:51:07;171875.63;;;18.47;nan
9460;BME280;4768;42.664;23.240;2022-07-11T08:53:39;171899.72;;;18.56;nan
9460;BME280;4768;42.664;23.240;2022-07-11T08:56:08;171815.34;;;18.25;nan
9460;BME280;4768;42.664;23.240;2022-07-11T08:58:42;171843.47;;;18.35;nan
9460;BME280;4768;42.664;23.240;2022-07-11T09:01:10;171885.03;;;18.50;nan
9460;BME280;4768;42.664;23.240;2022-07-11T09:03:37;171701.53;;;17.83;nan
9460;BME280;4768;42.664;23.240;2022-07-11T09:06:06;171808.66;;;18.22;nan
9460;BME280;4768;42.664;23.240;2022-07-11T09:08:33;171919.81;;;18.63;nan
9460;BME280;4768;42.664;23.240;2022-07-11T09:11:01;171886.34;;;18.51;nan
9460;BME280;4768;42.664;23.240;2022-07-11T09:13:29;171828.72;;;18.30;nan
9460;BME280;4768;42.664;23.240;2022-07-11T09:16:00;171842.16;;;18.35;nan
9460;BME280;4768;42.664;23.240;2022-07-11T09:18:32;171797.97;;;18.18;nan
9460;BME280;4768;42.664;23.240;2022-07-11T09:21:02;171875.63;;;18.47;nan
9460;BME280;4768;42.664;23.240;2022-07-11T09:23:49;171890.38;;;18.52;nan
9460;BME280;4768;42.664;23.240;2022-07-11T09:26:35;171883.66;;;18.50;nan
9460;BME280;4768;42.664;23.240;2022-07-11T09:29:05;171879.63;;;18.48;nan
9460;BME280;4768;42.664;23.240;2022-07-11T09:31:33;171902.41;;;18.57;nan
9460;BME280;4768;42.664;23.240;2022-07-11T09:34:03;171846.16;;;18.36;nan
9460;BME280;4768;42.664;23.240;2022-07-11T09:36:35;171931.88;;;18.68;nan
9460;BME280;4768;42.664;23.240;2022-07-11T09:39:04;171910.44;;;18.60;nan
9460;BME280;4768;42.664;23.240;2022-07-11T09:41:32;171943.91;;;18.72;nan
9460;BME280;4768;42.664;23.240;2022-07-11T09:44:09;171864.94;;;18.43;nan
9460;BME280;4768;42.664;23.240;2022-07-11T09:46:36;171968.03;;;18.81;nan
9460;BME280;4768;42.664;23.240;2022-07-11T09:49:03;171962.69;;;18.79;nan
9460;BME280;4768;42.664;23.240;2022-07-11T09:51:30;172027.03;;;19.03;nan
9460;BME280;4768;42.664;23.240;2022-07-11T09:53:58;171966.72;;;18.81;nan
9460;BME280;4768;42.664;23.240;2022-07-11T09:56:32;172027.03;;;19.03;nan
9460;BME280;4768;42.664;23.240;2022-07-11T09:59:00;172053.84;;;19.13;nan
9460;BME280;4768;42.664;23.240;2022-07-11T10:01:27;172155.66;;;19.50;nan
9460;BME280;4768;42.664;23.240;2022-07-11T10:03:55;172099.38;;;19.30;nan
9460;BME280;4768;42.664;23.240;2022-07-11T10:06:22;172102.09;;;19.31;nan
9460;BME280;4768;42.664;23.240;2022-07-11T10:08:50;172139.59;;;19.44;nan
9460;BME280;4768;42.664;23.240;2022-07-11T10:11:17;172045.81;;;19.10;nan
9460;BME280;4768;42.664;23.240;2022-07-11T10:13:46;171826.09;;;18.29;nan
9460;BME280;4768;42.664;23.240;2022-07-11T10:16:20;172022.97;;;19.01;nan
9460;BME280;4768;42.664;23.240;2022-07-11T10:18:56;172084.69;;;19.24;nan
9460;BME280;4768;42.664;23.240;2022-07-11T10:21:31;171926.53;;;18.66;nan
9460;BME280;4768;42.664;23.240;2022-07-11T10:24:08;172174.44;;;19.57;nan
9460;BME280;4768;42.664;23.240;2022-07-11T10:26:46;172321.94;;;20.12;nan
9460;BME280;4768;42.664;23.240;2022-07-11T10:29:24;172068.59;;;19.18;nan
9460;BME280;4768;42.664;23.240;2022-07-11T10:32:04;172068.59;;;19.18;nan
9460;BME280;4768;42.664;23.240;2022-07-11T10:34:31;172020.31;;;19.00;nan
9460;BME280;4768;42.664;23.240;2022-07-11T10:37:00;171958.66;;;18.78;nan
9460;BME280;4768;42.664;23.240;2022-07-11T10:39:27;172075.28;;;19.21;nan
9460;BME280;4768;42.664;23.240;2022-07-11T10:41:54;171981.47;;;18.86;nan
9460;BME280;4768;42.664;23.240;2022-07-11T10:44:23;172057.88;;;19.14;nan
9460;BME280;4768;42.664;23.240;2022-07-11T10:46:51;172055.19;;;19.13;nan
9460;BME280;4768;42.664;23.240;2022-07-11T10:49:29;172128.91;;;19.40;nan
9460;BME280;4768;42.664;23.240;2022-07-11T10:52:04;172132.91;;;19.42;nan
9460;BME280;4768;42.664;23.240;2022-07-11T10:54:42;171931.88;;;18.68;nan
9460;BME280;4768;42.664;23.240;2022-07-11T10:57:17;172048.50;;;19.11;nan
9460;BME280;4768;42.664;23.240;2022-07-11T10:59:58;172163.69;;;19.53;nan
9460;BME280;4768;42.664;23.240;2022-07-11T11:02:25;172221.34;;;19.75;nan
9460;BME280;4768;42.664;23.240;2022-07-11T11:04:53;172139.59;;;19.44;nan
9460;BME280;4768;42.664;23.240;2022-07-11T11:07:37;172144.97;;;19.46;nan
9460;BME280;4768;42.664;23.240;2022-07-11T11:10:06;172123.50;;;19.38;nan
9460;BME280;4768;42.664;23.240;2022-07-11T11:13:11;172217.34;;;19.73;nan
9460;BME280;4768;42.664;23.240;2022-07-11T11:15:45;172191.91;;;19.64;nan
9460;BME280;4768;42.664;23.240;2022-07-11T11:18:41;172053.84;;;19.13;nan
9460;BME280;4768;42.664;23.240;2022-07-11T11:21:19;172045.81;;;19.10;nan
9460;BME280;4768;42.664;23.240;2022-07-11T11:24:01;172127.53;;;19.40;nan
9460;BME280;4768;42.664;23.240;2022-07-11T11:26:45;172157.03;;;19.51;nan
9460;BME280;4768;42.664;23.240;2022-07-11T11:29:18;172230.72;;;19.78;nan
9460;BME280;4768;42.664;23.240;2022-07-11T11:31:50;172224.06;;;19.76;nan
9460;BME280;4768;42.664;23.240;2022-07-11T11:34:18;172228.09;;;19.77;nan
9460;BME280;4768;42.664;23.240;2022-07-11T11:36:52;172183.81;;;19.61;nan
9460;BME280;4768;42.664;23.240;2022-07-11T11:39:24;172182.47;;;19.60;nan
9460;BME280;4768;42.664;23.240;2022-07-11T11:41:50;172177.13;;;19.58;nan
9460;BME280;4768;42.664;23.240;2022-07-11T11:44:17;172175.75;;;19.58;nan
9460;BME280;4768;42.664;23.240;2022-07-11T11:46:44;172201.25;;;19.67;nan
9460;BME280;4768;42.664;23.240;2022-07-11T11:49:12;172041.78;;;19.08;nan
9460;BME280;4768;42.664;23.240;2022-07-11T11:51:40;172228.09;;;19.77;nan
9460;BME280;4768;42.664;23.240;2022-07-11T11:54:09;172270.97;;;19.93;nan
9460;BME280;4768;42.664;23.240;2022-07-11T11:56:36;172275.00;;;19.94;nan
9460;BME280;4768;42.664;23.240;2022-07-11T11:59:07;172266.97;;;19.91;nan
9460;BME280;4768;42.664;23.240;2022-07-11T12:01:37;172167.72;;;19.55;nan
9460;BME280;4768;42.664;23.240;2022-07-11T12:04:06;172253.56;;;19.87;nan
9460;BME280;4768;42.664;23.240;2022-07-11T12:06:37;172285.75;;;19.98;nan
9460;BME280;4768;42.664;23.240;2022-07-11T12:09:07;172329.97;;;20.15;nan
9460;BME280;4768;42.664;23.240;2022-07-11T12:11:35;172186.50;;;19.62;nan
9460;BME280;4768;42.664;23.240;2022-07-11T12:14:04;172217.34;;;19.73;nan
9460;BME280;4768;42.664;23.240;2022-07-11T12:16:33;172205.28;;;19.69;nan
9460;BME280;4768;42.664;23.240;2022-07-11T12:19:08;172329.97;;;20.15;nan
9460;BME280;4768;42.664;23.240;2022-07-11T12:21:41;172407.75;;;20.43;nan
9460;BME280;4768;42.664;23.240;2022-07-11T12:24:09;172343.38;;;20.20;nan
9460;BME280;4768;42.664;23.240;2022-07-11T12:26:39;172419.84;;;20.48;nan
9460;BME280;4768;42.664;23.240;2022-07-11T12:29:08;172252.19;;;19.86;nan
9460;BME280;4768;42.664;23.240;2022-07-11T12:31:55;172366.16;;;20.28;nan
9460;BME280;4768;42.664;23.240;2022-07-11T12:34:24;172366.16;;;20.28;nan
9460;BME280;4768;42.664;23.240;2022-07-11T12:37:03;172399.72;;;20.40;nan
9460;BME280;4768;42.664;23.240;2022-07-11T12:39:31;172198.56;;;19.66;nan
9460;BME280;4768;42.664;23.240;2022-07-11T12:42:00;172252.19;;;19.86;nan
9460;BME280;4768;42.664;23.240;2022-07-11T12:44:28;172201.25;;;19.67;nan
9460;BME280;4768;42.664;23.240;2022-07-11T12:47:13;172163.69;;;19.53;nan
9460;BME280;4768;42.664;23.240;2022-07-11T12:49:42;172161.06;;;19.52;nan
9460;BME280;4768;42.664;23.240;2022-07-11T12:52:12;172272.38;;;19.93;nan
9460;BME280;4768;42.664;23.240;2022-07-11T12:54:39;172335.31;;;20.17;nan
9460;BME280;4768;42.664;23.240;2022-07-11T12:57:07;172257.59;;;19.88;nan
9460;BME280;4768;42.664;23.240;2022-07-11T12:59:39;172272.38;;;19.93;nan
9460;BME280;4768;42.664;23.240;2022-07-11T13:02:07;172336.69;;;20.17;nan
9460;BME280;4768;42.664;23.240;2022-07-11T13:04:36;172262.94;;;19.90;nan
9460;BME280;4768;42.664;23.240;2022-07-11T13:07:34;172450.63;;;20.59;nan
9460;BME280;4768;42.664;23.240;2022-07-11T13:10:20;172297.81;;;20.03;nan
9460;BME280;4768;42.664;23.240;2022-07-11T13:12:48;172407.75;;;20.43;nan
9460;BME280;4768;42.664;23.240;2022-07-11T13:15:16;172556.66;;;20.98;nan
9460;BME280;4768;42.664;23.240;2022-07-11T13:17:47;172537.88;;;20.91;nan
9460;BME280;4768;42.664;23.240;2022-07-11T13:20:15;172452.00;;;20.60;nan
9460;BME280;4768;42.664;23.240;2022-07-11T13:22:45;172415.81;;;20.46;nan
9460;BME280;4768;42.664;23.240;2022-07-11T13:25:13;172331.31;;;20.15;nan
9460;BME280;4768;42.664;23.240;2022-07-11T13:27:41;172295.13;;;20.02;nan
9460;BME280;4768;42.664;23.240;2022-07-11T13:30:09;172311.19;;;20.08;nan